sensor_id;sensor_type;location;lat;lon;timestamp;P1;durP1;ratioP1;P2;durP2;ratioP2
77160;SDS011;66135;0.000;0.000;2023-10-31T11:48:12;4.88;;;2.67;;
77160;SDS011;66135;0.000;0.000;2023-10-31T11:50:39;3.83;;;2.20;;
77160;SDS011;66135;0.000;0.000;2023-10-31T11:55:43;2.60;;;1.77;;
77160;SDS011;66135;0.000;0.000;2023-10-31T11:58:21;3.85;;;2.30;;
77160;SDS011;66135;0.000;0.000;2023-10-31T12:00:49;3.63;;;2.00;;
77160;SDS011;66135;0.000;0.000;2023-10-31T12:03:19;2.63;;;1.80;;
77160;SDS011;66135;0.000;0.000;2023-10-31T12:05:55;3.08;;;1.95;;
77160;SDS011;66135;0.000;0.000;2023-10-31T12:08:25;2.90;;;2.17;;
77160;SDS011;66135;0.000;0.000;2023-10-31T12:11:15;2.55;;;1.95;;
77160;SDS011;66135;0.000;0.000;2023-10-31T12:14:01;2.72;;;2.15;;
77160;SDS011;66135;0.000;0.000;2023-10-31T12:16:34;3.40;;;1.80;;
77160;SDS011;66135;0.000;0.000;2023-10-31T12:19:00;4.28;;;2.30;;
77160;SDS011;66135;0.000;0.000;2023-10-31T12:21:40;2.50;;;2.25;;
77160;SDS011;66135;0.000;0.000;2023-10-31T12:24:12;3.55;;;1.83;;
77160;SDS011;66135;0.000;0.000;2023-10-31T12:26:38;3.58;;;2.85;;
77160;SDS011;66135;0.000;0.000;2023-10-31T12:29:15;4.05;;;2.08;;
77160;SDS011;66135;0.000;0.000;2023-10-31T12:31:55;2.97;;;1.70;;
77160;SDS011;66135;0.000;0.000;2023-10-31T12:34:23;2.53;;;1.63;;
77160;SDS011;66135;0.000;0.000;2023-10-31T12:36:50;3.85;;;2.30;;
77160;SDS011;66135;0.000;0.000;2023-10-31T12:39:26;3.10;;;2.20;;
77160;SDS011;66135;0.000;0.000;2023-10-31T12:41:53;2.17;;;1.73;;
77160;SDS011;66135;0.000;0.000;2023-10-31T12:44:28;2.00;;;1.73;;
77160;SDS011;66135;0.000;0.000;2023-10-31T12:46:53;2.05;;;1.67;;
77160;SDS011;66135;0.000;0.000;2023-10-31T12:49:19;3.00;;;1.90;;
77160;SDS011;66135;0.000;0.000;2023-10-31T12:51:58;2.80;;;1.55;;
77160;SDS011;66135;0.000;0.000;2023-10-31T12:54:40;2.00;;;1.60;;
77160;SDS011;66135;0.000;0.000;2023-10-31T12:57:06;2.67;;;1.85;;
77160;SDS011;66135;0.000;0.000;2023-10-31T12:59:32;2.42;;;1.95;;
77160;SDS011;66135;0.000;0.000;2023-10-31T13:01:59;2.45;;;1.90;;
77160;SDS011;66135;0.000;0.000;2023-10-31T13:04:28;2.92;;;1.77;;
77160;SDS011;66135;0.000;0.000;2023-10-31T13:07:15;2.90;;;1.65;;
77160;SDS011;66135;0.000;0.000;2023-10-31T13:09:40;2.70;;;1.90;;
77160;SDS011;66135;0.000;0.000;2023-10-31T13:12:07;2.47;;;1.65;;
77160;SDS011;66135;0.000;0.000;2023-10-31T13:14:34;1.95;;;1.48;;
77160;SDS011;66135;0.000;0.000;2023-10-31T13:17:00;2.50;;;1.67;;
77160;SDS011;66135;0.000;0.000;2023-10-31T13:19:26;2.45;;;1.52;;
77160;SDS011;66135;0.000;0.000;2023-10-31T13:21:52;2.22;;;1.23;;
77160;SDS011;66135;0.000;0.000;2023-10-31T13:24:17;2.53;;;1.70;;
77160;SDS011;66135;0.000;0.000;2023-10-31T13:26:44;1.52;;;1.35;;
77160;SDS011;66135;0.000;0.000;2023-10-31T13:29:10;1.73;;;1.45;;
77160;SDS011;66135;0.000;0.000;2023-10-31T13:31:36;2.45;;;1.63;;
77160;SDS011;66135;0.000;0.000;2023-10-31T13:34:02;3.03;;;1.75;;
77160;SDS011;66135;0.000;0.000;2023-10-31T13:36:28;2.30;;;1.58;;
77160;SDS011;66135;0.000;0.000;2023-10-31T13:38:54;3.35;;;1.73;;
77160;SDS011;66135;0.000;0.000;2023-10-31T13:41:19;2.58;;;1.30;;
77160;SDS011;66135;0.000;0.000;2023-10-31T13:43:45;2.70;;;1.80;;
77160;SDS011;66135;0.000;0.000;2023-10-31T13:46:10;3.38;;;1.73;;
77160;SDS011;66135;0.000;0.000;2023-10-31T13:48:36;3.00;;;1.80;;
77160;SDS011;66135;0.000;0.000;2023-10-31T13:51:01;4.63;;;1.80;;
77160;SDS011;66135;0.000;0.000;2023-10-31T13:53:38;3.33;;;1.50;;
77160;SDS011;66135;0.000;0.000;2023-10-31T13:56:03;3.70;;;1.70;;
77160;SDS011;66135;0.000;0.000;2023-10-31T13:58:29;2.38;;;0.93;;
77160;SDS011;66135;0.000;0.000;2023-10-31T14:00:54;3.13;;;1.35;;
77160;SDS011;66135;0.000;0.000;2023-10-31T14:03:19;2.05;;;1.52;;
77160;SDS011;66135;0.000;0.000;2023-10-31T14:05:45;2.63;;;1.60;;
77160;SDS011;66135;0.000;0.000;2023-10-31T14:08:10;1.77;;;1.23;;
77160;SDS011;66135;0.000;0.000;2023-10-31T14:10:36;2.97;;;1.60;;
77160;SDS011;66135;0.000;0.000;2023-10-31T14:13:02;3.22;;;1.38;;
77160;SDS011;66135;0.000;0.000;2023-10-31T14:15:27;1.65;;;1.45;;
77160;SDS011;66135;0.000;0.000;2023-10-31T14:17:53;2.03;;;1.02;;
77160;SDS011;66135;0.000;0.000;2023-10-31T14:20:18;2.40;;;1.25;;
77160;SDS011;66135;0.000;0.000;2023-10-31T14:22:49;1.58;;;0.80;;
77160;SDS011;66135;0.000;0.000;2023-10-31T14:25:15;2.00;;;1.27;;
77160;SDS011;66135;0.000;0.000;2023-10-31T14:27:41;2.75;;;1.25;;
77160;SDS011;66135;0.000;0.000;2023-10-31T14:30:08;2.22;;;1.17;;
77160;SDS011;66135;0.000;0.000;2023-10-31T14:32:34;2.03;;;1.27;;
77160;SDS011;66135;0.000;0.000;2023-10-31T14:34:59;2.92;;;1.35;;
77160;SDS011;66135;0.000;0.000;2023-10-31T14:37:25;3.45;;;1.33;;
77160;SDS011;66135;0.000;0.000;2023-10-31T14:39:52;2.50;;;1.27;;
77160;SDS011;66135;0.000;0.000;2023-10-31T14:42:18;1.48;;;0.93;;
77160;SDS011;66135;0.000;0.000;2023-10-31T14:44:43;1.95;;;1.65;;
77160;SDS011;66135;0.000;0.000;2023-10-31T14:47:09;1.80;;;1.20;;
77160;SDS011;66135;0.000;0.000;2023-10-31T14:49:34;2.05;;;1.17;;
77160;SDS011;66135;0.000;0.000;2023-10-31T14:52:00;1.92;;;1.00;;
77160;SDS011;66135;0.000;0.000;2023-10-31T14:54:26;2.10;;;0.77;;
77160;SDS011;66135;0.000;0.000;2023-10-31T14:56:51;1.92;;;1.83;;
77160;SDS011;66135;0.000;0.000;2023-10-31T14:59:17;4.00;;;1.00;;
77160;SDS011;66135;0.000;0.000;2023-10-31T15:01:42;1.80;;;0.95;;
77160;SDS011;66135;0.000;0.000;2023-10-31T15:04:07;2.75;;;1.70;;
77160;SDS011;66135;0.000;0.000;2023-10-31T15:06:33;1.48;;;0.95;;
77160;SDS011;66135;0.000;0.000;2023-10-31T15:08:58;2.72;;;1.08;;
77160;SDS011;66135;0.000;0.000;2023-10-31T15:11:24;1.90;;;1.10;;
77160;SDS011;66135;0.000;0.000;2023-10-31T15:13:50;1.15;;;0.63;;
77160;SDS011;66135;0.000;0.000;2023-10-31T15:16:15;1.40;;;1.02;;
77160;SDS011;66135;0.000;0.000;2023-10-31T15:18:40;2.03;;;0.90;;
77160;SDS011;66135;0.000;0.000;2023-10-31T15:21:06;2.58;;;1.42;;
77160;SDS011;66135;0.000;0.000;2023-10-31T15:23:31;2.15;;;1.15;;
77160;SDS011;66135;0.000;0.000;2023-10-31T15:25:57;1.63;;;0.95;;
77160;SDS011;66135;0.000;0.000;2023-10-31T15:28:23;2.15;;;0.90;;
77160;SDS011;66135;0.000;0.000;2023-10-31T15:31:04;3.70;;;1.50;;
77160;SDS011;66135;0.000;0.000;2023-10-31T15:33:38;2.58;;;1.27;;
77160;SDS011;66135;0.000;0.000;2023-10-31T15:36:09;1.50;;;0.90;;
77160;SDS011;66135;0.000;0.000;2023-10-31T15:38:39;0.98;;;0.63;;
77160;SDS011;66135;0.000;0.000;2023-10-31T15:41:05;1.70;;;0.80;;
77160;SDS011;66135;0.000;0.000;2023-10-31T15:43:30;4.80;;;0.90;;
77160;SDS011;66135;0.000;0.000;2023-10-31T15:45:56;2.53;;;1.00;;
77160;SDS011;66135;0.000;0.000;2023-10-31T15:48:21;3.15;;;0.95;;
77160;SDS011;66135;0.000;0.000;2023-10-31T15:50:47;1.65;;;0.98;;
77160;SDS011;66135;0.000;0.000;2023-10-31T15:53:12;1.75;;;0.80;;
77160;SDS011;66135;0.000;0.000;2023-10-31T15:55:37;1.40;;;1.05;;
77160;SDS011;66135;0.000;0.000;2023-10-31T15:58:03;2.20;;;1.30;;
77160;SDS011;66135;0.000;0.000;2023-10-31T16:00:37;2.58;;;1.05;;
77160;SDS011;66135;0.000;0.000;2023-10-31T16:03:03;2.42;;;1.10;;
77160;SDS011;66135;0.000;0.000;2023-10-31T16:05:29;1.63;;;0.90;;
77160;SDS011;66135;0.000;0.000;2023-10-31T16:07:55;2.45;;;0.95;;
77160;SDS011;66135;0.000;0.000;2023-10-31T16:10:20;2.45;;;0.93;;
77160;SDS011;66135;0.000;0.000;2023-10-31T16:12:47;2.10;;;1.67;;
77160;SDS011;66135;0.000;0.000;2023-10-31T16:15:12;1.98;;;1.75;;
77160;SDS011;66135;0.000;0.000;2023-10-31T16:17:38;2.85;;;1.40;;
77160;SDS011;66135;0.000;0.000;2023-10-31T16:20:03;3.20;;;2.00;;
77160;SDS011;66135;0.000;0.000;2023-10-31T16:22:30;2.22;;;1.30;;
77160;SDS011;66135;0.000;0.000;2023-10-31T16:24:56;5.30;;;2.65;;
77160;SDS011;66135;0.000;0.000;2023-10-31T16:27:22;4.43;;;2.53;;
77160;SDS011;66135;0.000;0.000;2023-10-31T16:29:47;4.80;;;2.60;;
77160;SDS011;66135;0.000;0.000;2023-10-31T16:32:13;4.25;;;2.72;;
77160;SDS011;66135;0.000;0.000;2023-10-31T16:34:39;5.25;;;2.47;;
77160;SDS011;66135;0.000;0.000;2023-10-31T16:39:30;4.65;;;2.15;;
77160;SDS011;66135;0.000;0.000;2023-10-31T16:41:56;5.32;;;2.70;;
77160;SDS011;66135;0.000;0.000;2023-10-31T16:44:22;5.18;;;3.03;;
77160;SDS011;66135;0.000;0.000;2023-10-31T16:46:48;9.23;;;2.97;;
77160;SDS011;66135;0.000;0.000;2023-10-31T16:49:14;7.10;;;3.22;;
77160;SDS011;66135;0.000;0.000;2023-10-31T16:51:39;5.28;;;2.03;;
77160;SDS011;66135;0.000;0.000;2023-10-31T16:54:06;3.13;;;1.98;;
77160;SDS011;66135;0.000;0.000;2023-10-31T16:56:32;4.80;;;2.03;;
77160;SDS011;66135;0.000;0.000;2023-10-31T16:58:57;3.97;;;1.58;;
77160;SDS011;66135;0.000;0.000;2023-10-31T17:01:23;3.95;;;1.23;;
77160;SDS011;66135;0.000;0.000;2023-10-31T17:03:48;2.72;;;1.30;;
77160;SDS011;66135;0.000;0.000;2023-10-31T17:06:14;3.38;;;0.98;;
77160;SDS011;66135;0.000;0.000;2023-10-31T17:08:40;3.22;;;1.40;;
77160;SDS011;66135;0.000;0.000;2023-10-31T17:11:06;3.00;;;1.25;;
77160;SDS011;66135;0.000;0.000;2023-10-31T17:13:32;2.03;;;0.98;;
77160;SDS011;66135;0.000;0.000;2023-10-31T17:15:59;2.20;;;0.93;;
77160;SDS011;66135;0.000;0.000;2023-10-31T17:18:26;4.38;;;1.58;;
77160;SDS011;66135;0.000;0.000;2023-10-31T17:23:18;3.83;;;1.13;;
77160;SDS011;66135;0.000;0.000;2023-10-31T17:25:44;2.92;;;1.33;;
77160;SDS011;66135;0.000;0.000;2023-10-31T17:28:12;2.08;;;0.82;;
77160;SDS011;66135;0.000;0.000;2023-10-31T17:30:38;1.63;;;1.00;;
77160;SDS011;66135;0.000;0.000;2023-10-31T17:33:03;2.08;;;1.02;;
77160;SDS011;66135;0.000;0.000;2023-10-31T17:35:30;2.95;;;1.20;;
77160;SDS011;66135;0.000;0.000;2023-10-31T17:37:55;2.92;;;0.93;;
77160;SDS011;66135;0.000;0.000;2023-10-31T17:40:20;2.15;;;0.70;;
77160;SDS011;66135;0.000;0.000;2023-10-31T17:42:47;3.08;;;1.38;;
77160;SDS011;66135;0.000;0.000;2023-10-31T17:45:13;2.05;;;0.85;;
77160;SDS011;66135;0.000;0.000;2023-10-31T17:47:38;1.80;;;0.63;;
77160;SDS011;66135;0.000;0.000;2023-10-31T17:50:04;3.80;;;0.60;;
77160;SDS011;66135;0.000;0.000;2023-10-31T17:52:34;2.83;;;0.55;;
77160;SDS011;66135;0.000;0.000;2023-10-31T17:55:00;2.40;;;0.60;;
77160;SDS011;66135;0.000;0.000;2023-10-31T17:57:25;3.83;;;0.57;;
77160;SDS011;66135;0.000;0.000;2023-10-31T17:59:50;3.35;;;0.95;;
77160;SDS011;66135;0.000;0.000;2023-10-31T18:04:41;3.77;;;0.60;;
77160;SDS011;66135;0.000;0.000;2023-10-31T18:09:31;2.00;;;0.40;;
77160;SDS011;66135;0.000;0.000;2023-10-31T18:11:57;3.00;;;0.52;;
77160;SDS011;66135;0.000;0.000;2023-10-31T18:14:22;3.28;;;0.60;;
77160;SDS011;66135;0.000;0.000;2023-10-31T18:16:48;1.63;;;0.60;;
77160;SDS011;66135;0.000;0.000;2023-10-31T18:21:38;1.67;;;0.40;;
77160;SDS011;66135;0.000;0.000;2023-10-31T18:24:06;3.83;;;1.02;;
77160;SDS011;66135;0.000;0.000;2023-10-31T18:26:32;4.90;;;0.50;;
77160;SDS011;66135;0.000;0.000;2023-10-31T18:28:57;1.75;;;0.30;;
77160;SDS011;66135;0.000;0.000;2023-10-31T18:31:23;3.20;;;0.45;;
77160;SDS011;66135;0.000;0.000;2023-10-31T18:33:49;1.55;;;0.40;;
77160;SDS011;66135;0.000;0.000;2023-10-31T18:36:14;1.55;;;0.40;;
77160;SDS011;66135;0.000;0.000;2023-10-31T18:38:39;2.47;;;0.50;;
77160;SDS011;66135;0.000;0.000;2023-10-31T18:41:05;2.78;;;0.55;;
77160;SDS011;66135;0.000;0.000;2023-10-31T18:43:31;2.78;;;0.82;;
77160;SDS011;66135;0.000;0.000;2023-10-31T18:45:59;2.83;;;0.30;;
77160;SDS011;66135;0.000;0.000;2023-10-31T18:48:24;2.85;;;0.40;;
77160;SDS011;66135;0.000;0.000;2023-10-31T18:50:50;3.28;;;0.80;;
77160;SDS011;66135;0.000;0.000;2023-10-31T18:55:41;4.00;;;0.60;;
77160;SDS011;66135;0.000;0.000;2023-10-31T18:58:07;1.20;;;0.40;;
77160;SDS011;66135;0.000;0.000;2023-10-31T19:00:32;2.25;;;0.40;;
77160;SDS011;66135;0.000;0.000;2023-10-31T19:02:58;1.92;;;0.20;;
77160;SDS011;66135;0.000;0.000;2023-10-31T19:05:26;1.70;;;0.40;;
77160;SDS011;66135;0.000;0.000;2023-10-31T19:07:52;4.88;;;0.55;;
77160;SDS011;66135;0.000;0.000;2023-10-31T19:10:18;1.77;;;0.30;;
77160;SDS011;66135;0.000;0.000;2023-10-31T19:12:43;3.83;;;0.43;;
77160;SDS011;66135;0.000;0.000;2023-10-31T19:15:09;2.33;;;0.65;;
77160;SDS011;66135;0.000;0.000;2023-10-31T19:17:34;2.53;;;1.13;;
77160;SDS011;66135;0.000;0.000;2023-10-31T19:20:00;2.85;;;1.25;;
77160;SDS011;66135;0.000;0.000;2023-10-31T19:22:25;3.08;;;0.28;;
77160;SDS011;66135;0.000;0.000;2023-10-31T19:24:51;1.30;;;0.30;;
77160;SDS011;66135;0.000;0.000;2023-10-31T19:27:24;1.83;;;0.22;;
77160;SDS011;66135;0.000;0.000;2023-10-31T19:29:50;1.50;;;0.50;;
77160;SDS011;66135;0.000;0.000;2023-10-31T19:32:15;0.82;;;0.50;;
77160;SDS011;66135;0.000;0.000;2023-10-31T19:34:41;1.65;;;0.30;;
77160;SDS011;66135;0.000;0.000;2023-10-31T19:37:28;2.53;;;1.00;;
77160;SDS011;66135;0.000;0.000;2023-10-31T19:39:53;4.47;;;0.45;;
77160;SDS011;66135;0.000;0.000;2023-10-31T19:44:44;2.10;;;0.53;;
77160;SDS011;66135;0.000;0.000;2023-10-31T19:47:09;2.83;;;0.32;;
77160;SDS011;66135;0.000;0.000;2023-10-31T19:49:44;3.65;;;0.55;;
77160;SDS011;66135;0.000;0.000;2023-10-31T19:52:09;0.95;;;0.25;;
77160;SDS011;66135;0.000;0.000;2023-10-31T19:54:35;1.48;;;0.35;;
77160;SDS011;66135;0.000;0.000;2023-10-31T19:57:00;2.83;;;0.50;;
77160;SDS011;66135;0.000;0.000;2023-10-31T19:59:25;1.88;;;0.50;;
77160;SDS011;66135;0.000;0.000;2023-10-31T20:01:51;1.52;;;0.38;;
77160;SDS011;66135;0.000;0.000;2023-10-31T20:06:41;2.60;;;0.60;;
77160;SDS011;66135;0.000;0.000;2023-10-31T20:09:07;2.60;;;0.50;;
77160;SDS011;66135;0.000;0.000;2023-10-31T20:11:32;3.10;;;0.55;;
77160;SDS011;66135;0.000;0.000;2023-10-31T20:16:23;1.40;;;0.10;;
77160;SDS011;66135;0.000;0.000;2023-10-31T20:18:49;2.47;;;0.47;;
77160;SDS011;66135;0.000;0.000;2023-10-31T20:21:14;2.65;;;0.60;;
77160;SDS011;66135;0.000;0.000;2023-10-31T20:23:40;0.80;;;0.20;;
77160;SDS011;66135;0.000;0.000;2023-10-31T20:26:06;1.65;;;0.22;;
77160;SDS011;66135;0.000;0.000;2023-10-31T20:28:44;1.25;;;0.30;;
77160;SDS011;66135;0.000;0.000;2023-10-31T20:31:09;3.15;;;0.38;;
77160;SDS011;66135;0.000;0.000;2023-10-31T20:33:35;1.85;;;0.20;;
77160;SDS011;66135;0.000;0.000;2023-10-31T20:36:01;1.40;;;0.40;;
77160;SDS011;66135;0.000;0.000;2023-10-31T20:40:52;2.20;;;0.55;;
77160;SDS011;66135;0.000;0.000;2023-10-31T20:45:42;1.30;;;0.50;;
77160;SDS011;66135;0.000;0.000;2023-10-31T20:48:08;1.00;;;0.10;;
77160;SDS011;66135;0.000;0.000;2023-10-31T20:50:53;1.13;;;0.25;;
77160;SDS011;66135;0.000;0.000;2023-10-31T20:53:19;2.17;;;0.60;;
77160;SDS011;66135;0.000;0.000;2023-10-31T20:55:44;2.45;;;0.32;;
77160;SDS011;66135;0.000;0.000;2023-10-31T21:00:36;1.15;;;0.10;;
77160;SDS011;66135;0.000;0.000;2023-10-31T21:03:02;1.40;;;0.90;;
77160;SDS011;66135;0.000;0.000;2023-10-31T21:05:31;1.23;;;0.32;;
77160;SDS011;66135;0.000;0.000;2023-10-31T21:10:22;4.50;;;0.30;;
77160;SDS011;66135;0.000;0.000;2023-10-31T21:12:48;0.90;;;0.30;;
77160;SDS011;66135;0.000;0.000;2023-10-31T21:17:39;0.73;;;0.10;;
77160;SDS011;66135;0.000;0.000;2023-10-31T21:22:30;6.05;;;0.50;;
77160;SDS011;66135;0.000;0.000;2023-10-31T21:24:56;0.70;;;0.10;;
77160;SDS011;66135;0.000;0.000;2023-10-31T21:27:23;1.67;;;0.22;;
77160;SDS011;66135;0.000;0.000;2023-10-31T21:30:01;1.15;;;0.32;;
77160;SDS011;66135;0.000;0.000;2023-10-31T21:34:55;0.83;;;0.20;;
77160;SDS011;66135;0.000;0.000;2023-10-31T21:37:21;1.20;;;0.20;;
77160;SDS011;66135;0.000;0.000;2023-10-31T21:39:48;0.70;;;0.20;;
77160;SDS011;66135;0.000;0.000;2023-10-31T21:42:23;0.47;;;0.13;;
77160;SDS011;66135;0.000;0.000;2023-10-31T21:47:14;0.90;;;0.35;;
77160;SDS011;66135;0.000;0.000;2023-10-31T21:49:39;0.70;;;0.30;;
77160;SDS011;66135;0.000;0.000;2023-10-31T21:52:04;0.60;;;0.28;;
77160;SDS011;66135;0.000;0.000;2023-10-31T21:54:30;1.17;;;0.30;;
77160;SDS011;66135;0.000;0.000;2023-10-31T21:56:56;1.00;;;0.20;;
77160;SDS011;66135;0.000;0.000;2023-10-31T22:01:47;1.10;;;0.40;;
77160;SDS011;66135;0.000;0.000;2023-10-31T22:06:38;1.05;;;0.38;;
77160;SDS011;66135;0.000;0.000;2023-10-31T22:09:04;1.77;;;0.30;;
77160;SDS011;66135;0.000;0.000;2023-10-31T22:11:49;1.15;;;0.30;;
77160;SDS011;66135;0.000;0.000;2023-10-31T22:14:15;0.73;;;0.28;;
77160;SDS011;66135;0.000;0.000;2023-10-31T22:16:40;1.52;;;0.30;;
77160;SDS011;66135;0.000;0.000;2023-10-31T22:21:32;0.63;;;0.30;;
77160;SDS011;66135;0.000;0.000;2023-10-31T22:23:58;2.10;;;0.30;;
77160;SDS011;66135;0.000;0.000;2023-10-31T22:26:23;1.70;;;0.30;;
77160;SDS011;66135;0.000;0.000;2023-10-31T22:28:58;0.63;;;0.20;;
77160;SDS011;66135;0.000;0.000;2023-10-31T22:31:24;1.10;;;0.17;;
77160;SDS011;66135;0.000;0.000;2023-10-31T22:33:49;0.88;;;0.22;;
77160;SDS011;66135;0.000;0.000;2023-10-31T22:36:17;0.98;;;0.30;;
77160;SDS011;66135;0.000;0.000;2023-10-31T22:41:08;1.27;;;0.33;;
77160;SDS011;66135;0.000;0.000;2023-10-31T22:43:34;0.85;;;0.40;;
77160;SDS011;66135;0.000;0.000;2023-10-31T22:46:00;0.63;;;0.32;;
77160;SDS011;66135;0.000;0.000;2023-10-31T22:48:25;1.08;;;0.35;;
77160;SDS011;66135;0.000;0.000;2023-10-31T22:50:58;1.05;;;0.13;;
77160;SDS011;66135;0.000;0.000;2023-10-31T22:53:24;1.08;;;0.30;;
77160;SDS011;66135;0.000;0.000;2023-10-31T22:55:52;0.73;;;0.30;;
77160;SDS011;66135;0.000;0.000;2023-10-31T22:58:17;0.45;;;0.20;;
77160;SDS011;66135;0.000;0.000;2023-10-31T23:00:42;0.82;;;0.70;;
77160;SDS011;66135;0.000;0.000;2023-10-31T23:03:08;1.45;;;0.57;;
77160;SDS011;66135;0.000;0.000;2023-10-31T23:05:33;0.95;;;0.22;;
77160;SDS011;66135;0.000;0.000;2023-10-31T23:07:59;1.08;;;0.20;;
77160;SDS011;66135;0.000;0.000;2023-10-31T23:10:25;0.98;;;0.10;;
77160;SDS011;66135;0.000;0.000;2023-10-31T23:12:50;1.00;;;0.55;;
77160;SDS011;66135;0.000;0.000;2023-10-31T23:15:16;0.70;;;0.22;;
77160;SDS011;66135;0.000;0.000;2023-10-31T23:17:49;1.10;;;0.20;;
77160;SDS011;66135;0.000;0.000;2023-10-31T23:20:17;1.48;;;0.20;;
77160;SDS011;66135;0.000;0.000;2023-10-31T23:22:51;0.65;;;0.28;;
77160;SDS011;66135;0.000;0.000;2023-10-31T23:25:17;0.55;;;0.35;;
77160;SDS011;66135;0.000;0.000;2023-10-31T23:27:45;1.17;;;0.43;;
77160;SDS011;66135;0.000;0.000;2023-10-31T23:30:11;1.92;;;0.40;;
77160;SDS011;66135;0.000;0.000;2023-10-31T23:32:38;0.40;;;0.32;;
77160;SDS011;66135;0.000;0.000;2023-10-31T23:35:07;1.58;;;0.13;;
77160;SDS011;66135;0.000;0.000;2023-10-31T23:37:33;1.20;;;0.40;;
77160;SDS011;66135;0.000;0.000;2023-10-31T23:39:59;0.45;;;0.10;;
77160;SDS011;66135;0.000;0.000;2023-10-31T23:42:25;0.73;;;0.10;;
77160;SDS011;66135;0.000;0.000;2023-10-31T23:44:51;0.55;;;0.10;;
77160;SDS011;66135;0.000;0.000;2023-10-31T23:47:16;0.70;;;0.15;;
77160;SDS011;66135;0.000;0.000;2023-10-31T23:49:42;2.13;;;0.38;;
77160;SDS011;66135;0.000;0.000;2023-10-31T23:52:07;0.88;;;0.22;;
77160;SDS011;66135;0.000;0.000;2023-10-31T23:54:33;0.80;;;0.22;;
77160;SDS011;66135;0.000;0.000;2023-10-31T23:56:58;0.63;;;0.22;;
77160;SDS011;66135;0.000;0.000;2023-10-31T23:59:24;0.95;;;0.95;;
